createdAt,value
2022-08-21T00:00:32.770Z,99.90
2022-08-21T00:06:35.106Z,99.90
2022-08-21T00:12:36.944Z,99.90
2022-08-21T00:18:38.842Z,99.90
2022-08-21T00:24:40.778Z,99.90
2022-08-21T00:30:44.278Z,99.90
2022-08-21T00:36:46.088Z,99.90
2022-08-21T00:42:53.164Z,99.90
2022-08-21T00:48:57.254Z,99.90
2022-08-21T00:55:02.854Z,99.90
2022-08-21T01:01:08.783Z,99.90
2022-08-21T01:07:11.318Z,99.90
2022-08-21T01:13:15.075Z,99.90
2022-08-21T01:19:19.211Z,99.90
2022-08-21T01:25:21.144Z,99.90
2022-08-21T01:31:26.375Z,99.90
2022-08-21T01:37:28.400Z,99.90
2022-08-21T01:43:33.998Z,99.90
2022-08-21T01:49:43.552Z,99.90
2022-08-21T01:55:45.402Z,99.90
2022-08-21T02:01:47.320Z,99.90
2022-08-21T02:07:51.974Z,99.90
2022-08-21T02:13:53.759Z,99.90
2022-08-21T02:19:55.677Z,99.90
2022-08-21T02:26:02.666Z,99.90
2022-08-21T02:32:05.756Z,99.90
2022-08-21T02:38:13.170Z,99.90
2022-08-21T02:44:15.403Z,99.90
2022-08-21T02:50:21.646Z,99.90
2022-08-21T02:56:23.631Z,99.90
2022-08-21T03:02:26.658Z,99.90
2022-08-21T03:08:28.565Z,99.90
2022-08-21T03:14:30.365Z,99.90
2022-08-21T03:20:33.539Z,99.90
2022-08-21T03:26:36.254Z,99.90
2022-08-21T03:32:38.079Z,99.90
2022-08-21T03:38:40.609Z,99.90
2022-08-21T03:44:42.402Z,99.90
2022-08-21T03:50:47.731Z,99.90
2022-08-21T03:56:50.346Z,99.90
2022-08-21T04:02:53.103Z,99.90
2022-08-21T04:08:55.460Z,99.90
2022-08-21T04:14:58.209Z,99.90
2022-08-21T04:21:00.974Z,99.90
2022-08-21T04:27:03.970Z,99.90
2022-08-21T04:33:05.908Z,99.90
2022-08-21T04:39:07.681Z,99.90
2022-08-21T04:45:27.546Z,99.90
2022-08-21T04:51:34.774Z,99.90
2022-08-21T04:57:48.515Z,99.90
2022-08-21T05:03:53.542Z,99.90
2022-08-21T05:09:55.898Z,99.90
2022-08-21T05:15:57.755Z,99.90
2022-08-21T05:21:59.539Z,99.90
2022-08-21T05:28:01.369Z,99.90
2022-08-21T05:34:03.205Z,99.90
2022-08-21T05:40:22.289Z,99.90
2022-08-21T05:46:24.844Z,99.90
2022-08-21T05:52:26.767Z,99.90
2022-08-21T05:58:28.585Z,99.90
2022-08-21T06:04:30.577Z,99.90
2022-08-21T06:10:32.522Z,99.90
2022-08-21T06:16:34.470Z,99.90
2022-08-21T06:22:36.237Z,99.90
2022-08-21T06:28:38.795Z,99.90
2022-08-21T06:34:42.496Z,99.90
2022-08-21T06:40:48.127Z,99.90
2022-08-21T06:46:49.974Z,99.90
2022-08-21T06:53:00.405Z,99.90
2022-08-21T06:59:02.286Z,99.90
2022-08-21T07:05:18.150Z,99.90
2022-08-21T07:11:23.380Z,99.90
2022-08-21T07:17:25.368Z,99.90
2022-08-21T07:23:36.072Z,99.90
2022-08-21T07:29:38.010Z,99.90
2022-08-21T07:35:40.222Z,99.90
2022-08-21T07:41:41.995Z,99.90
2022-08-21T07:47:44.586Z,99.90
2022-08-21T07:53:54.967Z,99.90
2022-08-21T07:59:56.779Z,99.90
2022-08-21T08:05:58.857Z,99.90
2022-08-21T08:12:00.628Z,99.90
2022-08-21T08:18:02.428Z,99.90
2022-08-21T08:24:18.847Z,99.90
2022-08-21T08:30:22.788Z,99.90
2022-08-21T08:36:34.959Z,99.90
2022-08-21T08:42:37.613Z,99.90
2022-08-21T08:49:06.598Z,99.90
2022-08-21T08:55:12.612Z,99.90
2022-08-21T09:01:18.543Z,99.90
2022-08-21T09:07:31.543Z,99.90
2022-08-21T09:13:52.482Z,99.90
2022-08-21T09:20:27.666Z,99.90
2022-08-21T09:26:41.896Z,99.90
2022-08-21T09:32:43.772Z,99.90
2022-08-21T09:38:54.347Z,99.90
2022-08-21T09:45:22.517Z,99.90
2022-08-21T09:51:25.677Z,99.90
2022-08-21T09:57:44.678Z,99.90
2022-08-21T10:03:50.142Z,99.90
2022-08-21T10:10:19.385Z,99.90
2022-08-21T10:16:45.840Z,99.90
2022-08-21T10:23:02.445Z,99.90
2022-08-21T10:29:07.173Z,99.90
2022-08-21T10:35:31.726Z,99.90
2022-08-21T10:42:17.706Z,99.90
2022-08-21T10:48:47.601Z,99.90
2022-08-21T10:55:27.822Z,99.90
2022-08-21T11:01:53.992Z,99.90
2022-08-21T11:08:12.974Z,99.90
2022-08-21T11:14:41.535Z,99.90
2022-08-21T11:21:00.765Z,99.90
2022-08-21T11:27:27.498Z,99.90
2022-08-21T11:33:54.414Z,99.90
2022-08-21T11:40:01.996Z,99.90
2022-08-21T11:46:20.899Z,99.90
2022-08-21T11:52:29.074Z,99.90
2022-08-21T11:58:40.399Z,99.90
2022-08-21T12:04:57.761Z,99.90
2022-08-21T12:11:05.398Z,99.90
2022-08-21T12:17:12.540Z,99.90
2022-08-21T12:23:32.364Z,99.20
2022-08-21T12:29:38.326Z,99.90
2022-08-21T12:35:44.476Z,99.90
2022-08-21T12:41:49.125Z,99.90
2022-08-21T12:48:01.153Z,99.90
2022-08-21T12:54:03.132Z,99.30
2022-08-21T13:00:12.098Z,99.10
2022-08-21T13:06:18.249Z,96.40
2022-08-21T13:12:22.262Z,95.80
2022-08-21T13:18:26.712Z,95.90
2022-08-21T13:24:42.820Z,96.30
2022-08-21T13:30:56.815Z,93.70
2022-08-21T13:37:07.351Z,95.60
2022-08-21T13:43:18.384Z,96.10
2022-08-21T13:49:30.148Z,97.10
2022-08-21T13:55:45.593Z,94.80
2022-08-21T14:02:00.161Z,93.50
2022-08-21T14:08:13.939Z,95.60
2022-08-21T14:14:23.409Z,92.50
2022-08-21T14:20:31.699Z,89.70
2022-08-21T14:26:36.767Z,92.10
2022-08-21T14:32:44.748Z,88.40
2022-08-21T14:38:47.831Z,91.20
2022-08-21T14:44:49.687Z,90.50
2022-08-21T14:50:54.975Z,91.00
2022-08-21T14:57:02.672Z,90.00
2022-08-21T15:03:05.166Z,83.20
2022-08-21T15:09:07.332Z,86.60
2022-08-21T15:15:10.275Z,85.20
2022-08-21T15:21:12.144Z,88.50
2022-08-21T15:27:16.832Z,90.10
2022-08-21T15:33:19.397Z,87.80
2022-08-21T15:39:21.269Z,86.70
2022-08-21T15:45:27.603Z,84.60
2022-08-21T15:51:29.489Z,86.30
2022-08-21T15:57:31.422Z,85.60
2022-08-21T16:03:34.356Z,84.10
2022-08-21T16:09:36.269Z,86.30
2022-08-21T16:15:38.133Z,88.90
2022-08-21T16:21:40.100Z,88.10
2022-08-21T16:27:44.177Z,83.70
2022-08-21T16:33:50.274Z,81.70
2022-08-21T16:39:55.285Z,84.30
2022-08-21T16:45:58.612Z,86.80
2022-08-21T16:52:00.543Z,86.40
2022-08-21T16:58:07.697Z,84.40
2022-08-21T17:04:09.493Z,84.00
2022-08-21T17:10:13.920Z,82.50
2022-08-21T17:16:16.357Z,84.30
2022-08-21T17:22:18.231Z,85.00
2022-08-21T17:28:25.192Z,84.30
2022-08-21T17:34:31.181Z,85.60
2022-08-21T17:40:36.483Z,85.50
2022-08-21T17:46:40.406Z,82.80
2022-08-21T17:52:44.447Z,82.00
2022-08-21T17:58:49.699Z,84.60
2022-08-21T18:04:51.841Z,90.20
2022-08-21T18:10:53.754Z,95.40
2022-08-21T18:16:56.332Z,99.40
2022-08-21T18:22:58.934Z,99.90
2022-08-21T18:29:01.962Z,99.90
2022-08-21T18:35:05.420Z,99.90
2022-08-21T18:41:09.558Z,99.90
2022-08-21T18:47:26.214Z,99.90
2022-08-21T18:53:29.125Z,99.90
2022-08-21T18:59:31.313Z,99.90
2022-08-21T19:05:33.650Z,99.90
2022-08-21T19:11:40.986Z,99.90
2022-08-21T19:17:50.704Z,99.90
2022-08-21T19:23:53.694Z,99.90
2022-08-21T19:29:55.651Z,99.90
2022-08-21T19:35:58.776Z,99.90
2022-08-21T19:42:00.610Z,99.90
2022-08-21T19:48:02.655Z,99.90
2022-08-21T19:54:10.946Z,99.90
2022-08-21T20:00:13.355Z,99.90
2022-08-21T20:06:19.413Z,99.90
2022-08-21T20:12:21.285Z,99.90
2022-08-21T20:18:26.984Z,99.90
2022-08-21T20:24:29.400Z,99.90
2022-08-21T20:30:31.612Z,99.90
2022-08-21T20:36:33.569Z,99.90
2022-08-21T20:42:37.784Z,99.90
2022-08-21T20:55:08.487Z,99.90
2022-08-21T21:01:10.793Z,99.90
2022-08-21T21:07:18.230Z,99.90
2022-08-21T21:13:43.060Z,99.90
2022-08-21T21:19:57.988Z,99.90
2022-08-21T21:26:06.576Z,99.90
2022-08-21T21:32:08.953Z,99.90
2022-08-21T21:38:31.241Z,99.90
2022-08-21T21:45:00.663Z,99.90
2022-08-21T21:51:23.038Z,99.90
2022-08-21T21:57:37.852Z,99.90
2022-08-21T22:03:53.473Z,99.90
2022-08-21T22:10:06.836Z,99.90
2022-08-21T22:16:22.238Z,99.90
2022-08-21T22:22:28.580Z,99.90
2022-08-21T22:28:35.327Z,99.90
2022-08-21T22:34:37.397Z,99.90
2022-08-21T22:40:40.304Z,99.90
2022-08-21T22:46:50.499Z,99.90
2022-08-21T22:52:56.944Z,99.90
2022-08-21T22:59:03.523Z,99.90
2022-08-21T23:05:30.891Z,99.90
2022-08-21T23:11:42.678Z,99.90
2022-08-21T23:17:55.646Z,99.90
2022-08-21T23:24:31.368Z,99.90
2022-08-21T23:30:51.199Z,99.90
2022-08-21T23:37:48.290Z,99.90
2022-08-21T23:44:18.708Z,99.90
2022-08-21T23:50:55.063Z,99.90
2022-08-21T23:57:08.236Z,99.90
